createdAt,value
2023-05-23T00:01:37.370Z,31.52
2023-05-23T00:05:39.270Z,31.02
2023-05-23T00:09:41.154Z,29.87
2023-05-23T00:13:43.015Z,28.58
2023-05-23T00:17:44.954Z,26.95
2023-05-23T00:21:52.381Z,25.70
2023-05-23T00:25:54.390Z,24.75
2023-05-23T00:29:56.754Z,21.58
2023-05-23T00:33:58.505Z,23.13
2023-05-23T00:38:02.257Z,22.90
2023-05-23T00:42:07.879Z,25.58
2023-05-23T00:46:11.312Z,21.20
2023-05-23T00:50:14.786Z,23.58
2023-05-23T00:54:21.456Z,25.23
2023-05-23T00:58:24.589Z,26.25
2023-05-23T01:02:27.911Z,23.33
2023-05-23T01:06:30.632Z,23.30
2023-05-23T01:10:32.472Z,22.50
2023-05-23T01:15:04.411Z,20.65
2023-05-23T01:19:49.189Z,23.67
2023-05-23T01:24:23.199Z,20.17
2023-05-23T01:28:29.868Z,21.95
2023-05-23T01:32:32.633Z,23.23
2023-05-23T01:36:37.720Z,24.15
2023-05-23T01:40:39.581Z,23.30
2023-05-23T01:44:42.072Z,25.63
2023-05-23T01:48:44.750Z,26.80
2023-05-23T01:52:47.409Z,25.25
2023-05-23T01:56:50.807Z,25.25
2023-05-23T02:00:52.766Z,25.98
2023-05-23T02:04:54.517Z,28.77
2023-05-23T02:08:56.186Z,27.65
2023-05-23T02:12:57.940Z,22.70
2023-05-23T02:17:00.496Z,22.10
2023-05-23T02:21:02.428Z,22.00
2023-05-23T02:25:04.724Z,22.88
2023-05-23T02:29:06.825Z,20.30
2023-05-23T02:33:08.843Z,20.10
2023-05-23T02:37:10.728Z,19.17
2023-05-23T02:41:12.688Z,18.40
2023-05-23T02:45:14.452Z,18.77
2023-05-23T02:49:16.267Z,22.20
2023-05-23T02:53:20.824Z,17.92
2023-05-23T02:57:22.732Z,20.10
2023-05-23T03:01:24.641Z,19.48
2023-05-23T03:05:26.469Z,17.10
2023-05-23T03:09:28.236Z,15.52
2023-05-23T03:13:31.184Z,12.68
2023-05-23T03:21:35.607Z,9.55
2023-05-23T03:25:37.400Z,7.50
2023-05-23T03:29:39.662Z,7.22
2023-05-23T03:33:41.439Z,7.85
2023-05-23T03:37:43.233Z,7.97
2023-05-23T03:41:44.974Z,7.95
2023-05-23T03:45:47.428Z,7.47
2023-05-23T03:49:49.306Z,7.68
2023-05-23T03:53:51.132Z,7.90
2023-05-23T03:57:52.976Z,9.15
2023-05-23T04:01:55.197Z,9.65
2023-05-23T04:05:57.856Z,13.07
2023-05-23T04:09:59.647Z,13.75
2023-05-23T04:14:02.087Z,14.93
2023-05-23T04:18:04.008Z,13.73
2023-05-23T04:22:06.045Z,18.00
2023-05-23T04:26:07.807Z,15.20
2023-05-23T04:30:10.268Z,15.45
2023-05-23T04:34:12.156Z,14.17
2023-05-23T04:38:13.941Z,13.38
2023-05-23T04:42:15.807Z,12.68
2023-05-23T04:46:19.035Z,11.52
2023-05-23T04:50:22.898Z,11.65
2023-05-23T04:54:24.745Z,10.30
2023-05-23T04:58:27.544Z,10.60
2023-05-23T05:02:33.823Z,9.35
2023-05-23T05:06:35.613Z,10.15
2023-05-23T05:10:38.585Z,9.90
2023-05-23T05:14:40.467Z,9.75
2023-05-23T05:18:42.573Z,9.70
2023-05-23T05:22:44.608Z,9.43
2023-05-23T05:26:46.947Z,9.65
2023-05-23T05:30:54.297Z,8.57
2023-05-23T05:34:56.294Z,9.82
2023-05-23T05:38:58.053Z,10.32
2023-05-23T05:42:59.863Z,9.68
2023-05-23T05:47:04.351Z,8.23
2023-05-23T05:51:06.482Z,8.85
2023-05-23T05:55:13.253Z,8.77
2023-05-23T05:59:15.294Z,8.60
2023-05-23T06:03:17.118Z,9.17
2023-05-23T06:07:19.000Z,9.32
2023-05-23T06:11:20.962Z,9.80
2023-05-23T06:15:22.764Z,10.05
2023-05-23T06:19:24.601Z,10.60
2023-05-23T06:23:26.742Z,10.25
2023-05-23T06:27:30.728Z,9.30
2023-05-23T06:31:32.515Z,10.98
2023-05-23T06:35:34.436Z,10.43
2023-05-23T06:39:36.229Z,10.02
2023-05-23T06:43:38.092Z,11.65
2023-05-23T06:47:43.666Z,13.85
2023-05-23T06:51:45.683Z,13.52
2023-05-23T06:55:47.477Z,12.23
2023-05-23T06:59:49.339Z,10.43
2023-05-23T07:03:51.055Z,10.68
2023-05-23T07:07:52.781Z,10.55
2023-05-23T07:11:54.592Z,11.43
2023-05-23T07:15:56.759Z,11.88
2023-05-23T07:19:58.551Z,11.93
2023-05-23T07:24:00.542Z,10.90
2023-05-23T07:28:02.369Z,10.50
2023-05-23T07:32:04.191Z,8.23
2023-05-23T07:36:06.152Z,8.35
2023-05-23T07:40:09.520Z,7.57
2023-05-23T07:44:11.260Z,8.30
2023-05-23T07:48:13.078Z,6.93
2023-05-23T07:52:14.842Z,7.40
2023-05-23T07:56:17.109Z,6.63
2023-05-23T08:00:19.488Z,7.38
2023-05-23T08:04:21.488Z,8.20
2023-05-23T08:08:23.248Z,7.67
2023-05-23T08:12:25.049Z,7.70
2023-05-23T08:16:28.100Z,9.68
2023-05-23T08:20:32.700Z,10.45
2023-05-23T08:24:34.508Z,8.65
2023-05-23T08:28:36.288Z,9.93
2023-05-23T08:32:38.109Z,8.85
2023-05-23T08:36:42.342Z,10.15
2023-05-23T08:40:50.455Z,10.13
2023-05-23T08:44:52.644Z,11.85
2023-05-23T08:48:55.529Z,9.93
2023-05-23T08:56:59.954Z,10.68
2023-05-23T09:01:02.062Z,10.90
2023-05-23T09:05:04.961Z,12.33
2023-05-23T09:09:07.265Z,12.93
2023-05-23T09:13:09.960Z,11.93
2023-05-23T09:17:18.162Z,13.13
2023-05-23T09:21:20.180Z,15.30
2023-05-23T09:25:22.142Z,13.15
2023-05-23T09:29:23.970Z,12.98
2023-05-23T09:33:33.463Z,12.13
2023-05-23T09:37:37.750Z,10.23
2023-05-23T09:41:39.835Z,8.73
2023-05-23T09:45:41.580Z,10.32
2023-05-23T09:49:47.077Z,10.60
2023-05-23T09:53:53.086Z,11.10
2023-05-23T09:57:58.594Z,13.48
2023-05-23T10:02:02.403Z,10.73
2023-05-23T10:06:10.824Z,9.38
2023-05-23T10:10:13.489Z,8.93
2023-05-23T10:14:16.700Z,11.85
2023-05-23T10:18:23.853Z,10.70
2023-05-23T10:22:26.250Z,9.88
2023-05-23T10:26:28.565Z,11.13
2023-05-23T10:30:30.579Z,13.13
2023-05-23T10:34:59.799Z,16.25
2023-05-23T10:39:22.696Z,11.20
2023-05-23T10:43:31.169Z,10.55
2023-05-23T10:47:34.291Z,9.13
2023-05-23T10:51:39.544Z,8.43
2023-05-23T10:55:41.402Z,9.45
2023-05-23T10:59:44.274Z,8.43
2023-05-23T11:03:46.127Z,9.65
2023-05-23T11:08:17.655Z,9.23
2023-05-23T11:12:43.404Z,7.50
2023-05-23T11:16:47.165Z,8.70
2023-05-23T11:20:54.677Z,8.65
2023-05-23T11:24:58.164Z,8.43
2023-05-23T11:29:00.188Z,8.93
2023-05-23T11:33:13.506Z,8.10
2023-05-23T11:37:15.774Z,7.53
2023-05-23T11:41:17.604Z,7.17
2023-05-23T11:45:23.664Z,7.55
2023-05-23T11:49:28.165Z,6.82
2023-05-23T11:53:30.602Z,6.90
2023-05-23T11:57:33.650Z,6.75
2023-05-23T12:01:37.808Z,6.20
2023-05-23T12:05:39.706Z,6.10
2023-05-23T12:09:44.798Z,4.85
2023-05-23T12:13:46.644Z,5.97
2023-05-23T12:17:49.642Z,6.38
2023-05-23T12:25:54.333Z,6.97
2023-05-23T12:34:07.615Z,7.88
2023-05-23T12:38:09.573Z,7.20
2023-05-23T12:42:11.619Z,8.30
2023-05-23T12:46:13.619Z,8.50
2023-05-23T12:50:15.743Z,8.23
2023-05-23T12:54:18.205Z,7.83
2023-05-23T12:58:19.997Z,8.25
2023-05-23T13:02:21.734Z,7.30
2023-05-23T13:06:23.564Z,8.85
2023-05-23T13:10:25.528Z,7.00
2023-05-23T13:14:27.290Z,7.73
2023-05-23T13:18:29.057Z,7.75
2023-05-23T13:22:31.338Z,7.50
2023-05-23T13:26:33.096Z,7.38
2023-05-23T13:30:34.944Z,6.22
2023-05-23T13:34:37.539Z,6.38
2023-05-23T13:38:39.334Z,6.85
2023-05-23T13:42:41.222Z,6.82
2023-05-23T13:46:43.763Z,6.88
2023-05-23T13:50:45.717Z,6.85
2023-05-23T13:54:47.653Z,5.97
2023-05-23T13:58:49.454Z,5.55
2023-05-23T14:02:51.172Z,6.05
2023-05-23T14:06:53.222Z,5.40
2023-05-23T14:10:54.952Z,5.67
2023-05-23T14:14:56.992Z,4.82
2023-05-23T14:18:58.837Z,4.00
2023-05-23T14:23:00.708Z,4.05
2023-05-23T14:27:02.605Z,4.43
2023-05-23T14:31:04.734Z,4.07
2023-05-23T14:35:07.363Z,3.87
2023-05-23T14:39:10.843Z,3.75
2023-05-23T14:43:12.729Z,3.92
2023-05-23T14:47:14.598Z,3.22
2023-05-23T14:51:27.459Z,3.15
2023-05-23T14:55:36.896Z,4.07
2023-05-23T14:59:38.653Z,3.55
2023-05-23T15:03:46.136Z,3.10
2023-05-23T15:07:48.468Z,3.13
2023-05-23T15:11:50.386Z,3.30
2023-05-23T15:15:54.195Z,3.35
2023-05-23T15:19:57.206Z,3.67
2023-05-23T15:23:59.847Z,3.17
2023-05-23T15:28:01.998Z,3.33
2023-05-23T15:32:04.091Z,4.00
2023-05-23T15:36:06.027Z,3.23
2023-05-23T15:40:08.362Z,3.92
2023-05-23T15:44:12.003Z,3.25
2023-05-23T15:48:15.128Z,3.78
2023-05-23T15:52:16.843Z,3.10
2023-05-23T15:56:18.751Z,3.10
2023-05-23T16:00:21.035Z,4.13
2023-05-23T16:04:23.641Z,3.25
2023-05-23T16:08:25.500Z,3.13
2023-05-23T16:12:27.233Z,3.92
2023-05-23T16:16:29.084Z,3.83
2023-05-23T16:20:30.960Z,4.10
2023-05-23T16:24:32.746Z,4.25
2023-05-23T16:28:34.570Z,4.00
2023-05-23T16:32:36.361Z,3.72
2023-05-23T16:36:38.303Z,3.40
2023-05-23T16:40:40.219Z,3.40
2023-05-23T16:44:42.228Z,3.50
2023-05-23T16:48:44.062Z,3.22
2023-05-23T16:52:45.866Z,4.07
2023-05-23T16:56:47.609Z,3.05
2023-05-23T17:00:49.340Z,3.63
2023-05-23T17:04:51.510Z,3.33
2023-05-23T17:08:53.267Z,2.97
2023-05-23T17:12:55.120Z,3.72
2023-05-23T17:16:57.218Z,3.75
2023-05-23T17:20:59.523Z,3.73
2023-05-23T17:25:01.902Z,3.38
2023-05-23T17:29:03.665Z,3.58
2023-05-23T17:33:05.469Z,4.07
2023-05-23T17:37:07.196Z,2.92
2023-05-23T17:41:09.201Z,2.72
2023-05-23T17:45:11.505Z,4.43
2023-05-23T17:49:13.223Z,3.50
2023-05-23T17:53:15.049Z,3.97
2023-05-23T17:57:16.890Z,3.20
2023-05-23T18:01:18.785Z,3.22
2023-05-23T18:05:21.172Z,3.28
2023-05-23T18:09:22.974Z,3.50
2023-05-23T18:13:24.757Z,3.40
2023-05-23T18:17:26.987Z,3.53
2023-05-23T18:21:28.977Z,3.53
2023-05-23T18:25:30.790Z,2.95
2023-05-23T18:29:32.662Z,4.53
2023-05-23T18:33:34.532Z,3.80
2023-05-23T18:37:37.016Z,4.00
2023-05-23T18:41:38.814Z,3.40
2023-05-23T18:45:40.855Z,3.97
2023-05-23T18:49:43.387Z,4.00
2023-05-23T18:53:45.255Z,2.85
2023-05-23T18:57:46.985Z,3.92
2023-05-23T19:01:48.842Z,4.60
2023-05-23T19:05:50.843Z,3.28
2023-05-23T19:09:52.731Z,3.40
2023-05-23T19:13:54.485Z,3.17
2023-05-23T19:17:56.723Z,3.17
2023-05-23T19:21:58.610Z,3.03
2023-05-23T19:26:00.479Z,3.65
2023-05-23T19:30:02.232Z,3.65
2023-05-23T19:34:06.650Z,2.65
2023-05-23T19:38:08.730Z,3.88
2023-05-23T19:42:10.501Z,3.47
2023-05-23T19:46:13.562Z,4.22
2023-05-23T19:50:15.570Z,3.50
2023-05-23T19:54:17.622Z,3.28
2023-05-23T19:58:19.476Z,3.30
2023-05-23T20:02:21.835Z,3.38
2023-05-23T20:06:23.658Z,2.95
2023-05-23T20:10:25.875Z,3.60
2023-05-23T20:14:29.267Z,4.10
2023-05-23T20:18:32.169Z,3.72
2023-05-23T20:22:34.186Z,3.85
2023-05-23T20:26:35.954Z,3.85
2023-05-23T20:30:37.708Z,3.40
2023-05-23T20:34:39.901Z,3.20
2023-05-23T20:38:41.725Z,3.93
2023-05-23T20:42:45.268Z,3.78
2023-05-23T20:46:48.163Z,3.13
2023-05-23T20:54:52.418Z,3.70
2023-05-23T20:58:54.199Z,3.83
2023-05-23T21:02:56.338Z,3.10
2023-05-23T21:06:58.236Z,4.03
2023-05-23T21:10:59.994Z,3.53
2023-05-23T21:15:02.216Z,3.90
2023-05-23T21:19:04.006Z,3.47
2023-05-23T21:23:05.744Z,3.67
2023-05-23T21:27:08.439Z,3.85
2023-05-23T21:31:10.437Z,4.00
2023-05-23T21:35:12.250Z,4.53
2023-05-23T21:39:13.976Z,3.70
2023-05-23T21:43:15.750Z,4.20
2023-05-23T21:47:17.489Z,3.53
2023-05-23T21:51:19.451Z,3.42
2023-05-23T21:55:21.255Z,3.17
2023-05-23T21:59:23.325Z,3.33
2023-05-23T22:03:25.803Z,3.63
2023-05-23T22:07:27.550Z,3.37
2023-05-23T22:11:34.067Z,3.05
2023-05-23T22:15:36.934Z,3.42
2023-05-23T22:19:38.829Z,2.92
2023-05-23T22:23:41.052Z,3.42
2023-05-23T22:27:42.826Z,2.95
2023-05-23T22:31:44.860Z,3.95
2023-05-23T22:35:46.815Z,4.25
2023-05-23T22:39:48.743Z,3.83
2023-05-23T22:43:50.606Z,3.67
2023-05-23T22:47:53.958Z,2.90
2023-05-23T22:51:56.135Z,3.42
2023-05-23T22:56:00.783Z,2.88
2023-05-23T23:00:02.776Z,3.55
2023-05-23T23:04:04.597Z,2.75
2023-05-23T23:08:06.478Z,3.75
2023-05-23T23:12:08.584Z,3.75
2023-05-23T23:16:10.372Z,3.05
2023-05-23T23:20:12.884Z,3.10
2023-05-23T23:24:15.080Z,3.45
2023-05-23T23:28:17.515Z,4.18
2023-05-23T23:32:19.279Z,3.92
2023-05-23T23:36:21.404Z,4.38
2023-05-23T23:40:23.396Z,3.33
2023-05-23T23:44:25.108Z,3.53
2023-05-23T23:48:26.844Z,3.33
2023-05-23T23:52:30.005Z,3.33
